createdAt,value
2023-03-11T00:01:11.814Z,80.96
2023-03-11T00:03:38.506Z,79.81
2023-03-11T00:06:05.357Z,79.75
2023-03-11T00:08:31.963Z,79.90
2023-03-11T00:11:00.579Z,80.78
2023-03-11T00:13:28.953Z,81.98
2023-03-11T00:15:56.582Z,82.53
2023-03-11T00:18:28.005Z,82.57
2023-03-11T00:20:56.196Z,83.48
2023-03-11T00:23:23.759Z,83.11
2023-03-11T00:25:50.789Z,83.36
2023-03-11T00:28:17.872Z,82.59
2023-03-11T00:30:46.105Z,82.93
2023-03-11T00:33:15.043Z,83.33
2023-03-11T00:35:42.659Z,84.35
2023-03-11T00:38:13.609Z,84.84
2023-03-11T00:40:40.431Z,83.79
2023-03-11T00:43:07.105Z,84.59
2023-03-11T00:45:33.911Z,83.14
2023-03-11T00:48:00.655Z,84.11
2023-03-11T00:50:30.717Z,84.26
2023-03-11T00:52:57.868Z,84.49
2023-03-11T00:55:27.562Z,85.03
2023-03-11T00:57:55.640Z,85.50
2023-03-11T01:00:24.819Z,84.14
2023-03-11T01:02:53.038Z,84.29
2023-03-11T01:05:21.807Z,85.80
2023-03-11T01:07:49.113Z,85.96
2023-03-11T01:10:17.180Z,85.94
2023-03-11T01:12:44.028Z,87.52
2023-03-11T01:15:18.854Z,85.67
2023-03-11T01:17:45.639Z,85.21
2023-03-11T01:20:13.037Z,84.42
2023-03-11T01:22:39.637Z,84.26
2023-03-11T01:25:06.580Z,83.42
2023-03-11T01:27:33.120Z,83.35
2023-03-11T01:29:59.705Z,84.30
2023-03-11T01:32:26.297Z,84.24
2023-03-11T01:34:52.824Z,82.11
2023-03-11T01:37:20.199Z,83.37
2023-03-11T01:39:46.741Z,82.51
2023-03-11T01:42:13.369Z,82.03
2023-03-11T01:44:40.026Z,82.07
2023-03-11T01:47:13.112Z,82.90
2023-03-11T01:49:43.567Z,82.80
2023-03-11T01:52:10.221Z,82.50
2023-03-11T01:54:41.677Z,81.91
2023-03-11T01:57:12.591Z,82.63
2023-03-11T01:59:48.761Z,81.44
2023-03-11T02:02:22.925Z,81.43
2023-03-11T02:04:50.906Z,82.35
2023-03-11T02:07:18.031Z,80.71
2023-03-11T02:09:44.782Z,82.16
2023-03-11T02:12:15.056Z,80.69
2023-03-11T02:14:46.239Z,81.41
2023-03-11T02:17:13.360Z,81.79
2023-03-11T02:20:06.236Z,80.96
2023-03-11T02:22:33.612Z,81.77
2023-03-11T02:25:09.379Z,81.82
2023-03-11T02:27:41.195Z,82.11
2023-03-11T02:30:11.074Z,81.89
2023-03-11T02:32:38.262Z,81.48
2023-03-11T02:35:06.821Z,81.47
2023-03-11T02:37:33.378Z,80.63
2023-03-11T02:40:33.214Z,81.15
2023-03-11T02:43:01.707Z,80.79
2023-03-11T02:45:29.976Z,81.14
2023-03-11T02:47:58.630Z,81.97
2023-03-11T02:50:27.851Z,82.05
2023-03-11T02:52:54.400Z,82.19
2023-03-11T02:55:21.641Z,82.63
2023-03-11T02:57:48.397Z,82.18
2023-03-11T03:00:16.735Z,82.27
2023-03-11T03:02:44.784Z,83.09
2023-03-11T03:05:12.407Z,83.92
2023-03-11T03:07:39.334Z,84.84
2023-03-11T03:10:08.391Z,85.05
2023-03-11T03:12:34.965Z,85.39
2023-03-11T03:15:01.452Z,84.91
2023-03-11T03:17:28.073Z,85.35
2023-03-11T03:19:54.645Z,84.96
2023-03-11T03:22:21.203Z,85.50
2023-03-11T03:24:47.886Z,85.79
2023-03-11T03:27:14.509Z,87.19
2023-03-11T03:29:41.032Z,87.41
2023-03-11T03:32:07.810Z,86.86
2023-03-11T03:34:34.420Z,87.27
2023-03-11T03:37:00.993Z,87.75
2023-03-11T03:39:30.113Z,88.09
2023-03-11T03:41:57.228Z,88.32
2023-03-11T03:44:23.947Z,87.74
2023-03-11T03:46:50.469Z,87.45
2023-03-11T03:49:17.051Z,87.46
2023-03-11T03:51:43.645Z,87.03
2023-03-11T03:54:10.139Z,87.18
2023-03-11T03:56:36.660Z,86.76
2023-03-11T03:59:03.615Z,86.55
2023-03-11T04:01:30.179Z,86.74
2023-03-11T04:03:56.896Z,86.99
2023-03-11T04:06:26.701Z,87.30
2023-03-11T04:08:53.623Z,86.76
2023-03-11T04:11:20.869Z,86.93
2023-03-11T04:13:47.618Z,88.05
2023-03-11T04:16:19.805Z,87.73
2023-03-11T04:18:47.328Z,87.98
2023-03-11T04:21:14.028Z,88.71
2023-03-11T04:23:40.574Z,88.47
2023-03-11T04:26:07.115Z,87.78
2023-03-11T04:28:33.702Z,88.58
2023-03-11T04:31:00.285Z,88.34
2023-03-11T04:33:26.818Z,88.98
2023-03-11T04:35:53.514Z,88.60
2023-03-11T04:38:20.090Z,88.43
2023-03-11T04:40:46.708Z,88.60
2023-03-11T04:43:13.277Z,88.47
2023-03-11T04:45:40.700Z,87.59
2023-03-11T04:48:07.475Z,87.67
2023-03-11T04:50:34.050Z,87.97
2023-03-11T04:53:00.828Z,88.33
2023-03-11T04:55:27.366Z,87.38
2023-03-11T04:57:53.893Z,86.75
2023-03-11T05:00:24.744Z,86.33
2023-03-11T05:02:51.669Z,85.84
2023-03-11T05:05:19.592Z,86.10
2023-03-11T05:07:46.579Z,85.33
2023-03-11T05:10:13.984Z,86.15
2023-03-11T05:12:40.756Z,85.03
2023-03-11T05:15:07.705Z,84.85
2023-03-11T05:17:34.327Z,84.97
2023-03-11T05:20:00.856Z,85.13
2023-03-11T05:22:27.423Z,85.48
2023-03-11T05:24:53.998Z,83.44
2023-03-11T05:27:21.302Z,84.22
2023-03-11T05:29:47.940Z,83.58
2023-03-11T05:32:14.855Z,82.49
2023-03-11T05:34:41.597Z,83.00
2023-03-11T05:37:09.062Z,82.99
2023-03-11T05:39:37.668Z,82.38
2023-03-11T05:42:05.383Z,82.02
2023-03-11T05:44:32.905Z,82.32
2023-03-11T05:47:00.374Z,81.75
2023-03-11T05:49:27.413Z,81.35
2023-03-11T05:51:55.286Z,81.75
2023-03-11T05:54:23.346Z,81.71
2023-03-11T05:56:49.870Z,81.24
2023-03-11T05:59:17.720Z,80.82
2023-03-11T06:01:44.986Z,81.87
2023-03-11T06:04:11.986Z,80.89
2023-03-11T06:06:41.322Z,81.62
2023-03-11T06:09:12.877Z,81.50
2023-03-11T06:11:39.576Z,80.57
2023-03-11T06:14:06.162Z,80.41
2023-03-11T06:16:32.886Z,81.57
2023-03-11T06:19:02.576Z,80.02
2023-03-11T06:21:29.196Z,81.32
2023-03-11T06:23:55.729Z,80.72
2023-03-11T06:26:23.224Z,80.19
2023-03-11T06:28:51.706Z,80.06
2023-03-11T06:31:24.333Z,79.93
2023-03-11T06:33:51.531Z,79.67
2023-03-11T06:36:20.258Z,79.66
2023-03-11T06:38:47.076Z,79.15
2023-03-11T06:41:13.602Z,80.93
2023-03-11T06:43:40.161Z,80.03
2023-03-11T06:46:19.119Z,80.17
2023-03-11T06:48:46.368Z,80.03
2023-03-11T06:51:13.560Z,80.76
2023-03-11T06:53:40.430Z,79.87
2023-03-11T06:56:09.082Z,80.41
2023-03-11T06:58:37.745Z,80.75
2023-03-11T07:01:07.599Z,79.44
2023-03-11T07:03:34.530Z,79.78
2023-03-11T07:06:01.369Z,79.23
2023-03-11T07:08:28.584Z,79.15
2023-03-11T07:11:15.636Z,78.79
2023-03-11T07:13:42.604Z,78.83
2023-03-11T07:16:21.881Z,79.49
2023-03-11T07:18:50.944Z,79.77
2023-03-11T07:21:21.206Z,80.09
2023-03-11T07:23:49.855Z,80.73
2023-03-11T07:26:17.922Z,80.26
2023-03-11T07:28:44.845Z,80.30
2023-03-11T07:31:20.007Z,81.66
2023-03-11T07:33:47.103Z,80.67
2023-03-11T07:36:19.949Z,80.97
2023-03-11T07:38:47.106Z,80.63
2023-03-11T07:41:15.228Z,80.78
2023-03-11T07:43:42.913Z,80.38
2023-03-11T07:46:18.683Z,81.17
2023-03-11T07:48:45.881Z,81.03
2023-03-11T07:51:16.349Z,81.50
2023-03-11T07:53:43.319Z,81.06
2023-03-11T07:56:12.695Z,81.02
2023-03-11T07:58:40.352Z,80.07
2023-03-11T08:01:12.699Z,80.10
2023-03-11T08:03:39.578Z,80.37
2023-03-11T08:06:14.675Z,80.05
2023-03-11T08:08:42.006Z,80.40
2023-03-11T08:11:09.577Z,79.63
2023-03-11T08:13:36.348Z,80.52
2023-03-11T08:16:07.475Z,79.62
2023-03-11T08:18:34.683Z,79.71
2023-03-11T08:21:06.485Z,79.55
2023-03-11T08:23:33.739Z,79.93
2023-03-11T08:26:11.150Z,80.05
2023-03-11T08:28:37.827Z,79.78
2023-03-11T08:31:12.565Z,79.53
2023-03-11T08:33:39.132Z,79.24
2023-03-11T08:36:06.161Z,79.75
2023-03-11T08:38:33.023Z,80.45
2023-03-11T08:41:00.868Z,80.08
2023-03-11T08:43:27.728Z,80.08
2023-03-11T08:45:54.349Z,79.94
2023-03-11T08:48:20.878Z,79.25
2023-03-11T08:50:54.397Z,79.46
2023-03-11T08:53:22.538Z,79.08
2023-03-11T08:55:51.533Z,79.26
2023-03-11T08:58:19.104Z,78.55
2023-03-11T09:00:46.191Z,78.47
2023-03-11T09:03:13.545Z,78.25
2023-03-11T09:05:40.754Z,78.41
2023-03-11T09:08:07.375Z,79.79
2023-03-11T09:10:33.955Z,79.88
2023-03-11T09:13:00.493Z,80.06
2023-03-11T09:15:27.063Z,80.03
2023-03-11T09:17:54.323Z,80.35
2023-03-11T09:20:20.925Z,82.02
2023-03-11T09:22:47.637Z,82.28
2023-03-11T09:25:14.733Z,82.36
2023-03-11T09:27:41.532Z,82.38
2023-03-11T09:30:09.783Z,81.99
2023-03-11T09:32:36.430Z,83.14
2023-03-11T09:35:03.432Z,82.20
2023-03-11T09:37:30.390Z,82.56
2023-03-11T09:39:57.011Z,81.87
2023-03-11T09:42:41.135Z,81.70
2023-03-11T09:45:19.890Z,82.09
2023-03-11T09:48:13.340Z,81.72
2023-03-11T09:50:47.298Z,81.81
2023-03-11T09:53:34.383Z,81.94
2023-03-11T09:56:06.112Z,79.61
2023-03-11T09:59:08.205Z,79.78
2023-03-11T10:01:42.790Z,79.71
2023-03-11T10:04:33.096Z,78.80
2023-03-11T10:07:03.215Z,78.65
2023-03-11T10:09:41.126Z,78.42
2023-03-11T10:12:37.079Z,78.29
2023-03-11T10:15:40.560Z,79.52
2023-03-11T10:18:19.175Z,78.70
2023-03-11T10:21:04.661Z,78.64
2023-03-11T10:23:55.210Z,78.27
2023-03-11T10:26:25.997Z,78.18
2023-03-11T10:29:00.124Z,76.77
2023-03-11T10:32:03.778Z,77.60
2023-03-11T10:34:38.436Z,75.85
2023-03-11T10:37:11.426Z,75.97
2023-03-11T10:39:38.753Z,75.95
2023-03-11T10:42:10.181Z,77.49
2023-03-11T10:44:42.122Z,75.70
2023-03-11T10:47:34.996Z,74.00
2023-03-11T10:50:01.546Z,73.81
2023-03-11T10:52:28.136Z,73.82
2023-03-11T10:55:03.201Z,73.26
2023-03-11T10:57:34.352Z,72.80
2023-03-11T11:00:17.311Z,73.22
2023-03-11T11:02:58.270Z,73.83
2023-03-11T11:05:33.825Z,75.71
2023-03-11T11:08:13.704Z,75.91
2023-03-11T11:11:00.340Z,76.66
2023-03-11T11:13:34.350Z,77.37
2023-03-11T11:16:09.179Z,76.93
2023-03-11T11:18:42.199Z,77.55
2023-03-11T11:21:10.991Z,77.58
2023-03-11T11:23:42.332Z,76.24
2023-03-11T11:26:21.943Z,75.50
2023-03-11T11:29:12.315Z,75.00
2023-03-11T11:31:41.895Z,74.64
2023-03-11T11:34:32.632Z,75.35
2023-03-11T11:37:02.363Z,74.93
2023-03-11T11:39:30.545Z,76.09
2023-03-11T11:41:57.252Z,75.36
2023-03-11T11:44:32.850Z,75.71
2023-03-11T11:47:13.631Z,74.07
2023-03-11T11:49:50.270Z,73.40
2023-03-11T11:52:22.678Z,74.28
2023-03-11T11:54:49.159Z,74.29
2023-03-11T11:57:18.023Z,72.68
2023-03-11T11:59:44.855Z,71.21
2023-03-11T12:02:34.670Z,71.25
2023-03-11T12:05:17.552Z,69.35
2023-03-11T12:08:00.190Z,68.58
2023-03-11T12:10:39.579Z,69.67
2023-03-11T12:13:34.038Z,69.04
2023-03-11T12:16:23.397Z,66.09
2023-03-11T12:18:58.393Z,67.48
2023-03-11T12:21:28.092Z,68.12
2023-03-11T12:24:17.553Z,69.51
2023-03-11T12:26:47.074Z,69.63
2023-03-11T12:29:34.309Z,68.25
2023-03-11T12:32:02.454Z,67.13
2023-03-11T12:34:33.638Z,67.14
2023-03-11T12:37:04.497Z,66.33
2023-03-11T12:39:36.392Z,66.44
2023-03-11T12:42:11.955Z,67.52
2023-03-11T12:44:40.488Z,67.79
2023-03-11T12:47:13.222Z,67.21
2023-03-11T12:49:44.063Z,68.48
2023-03-11T12:52:13.659Z,68.60
2023-03-11T12:55:10.577Z,69.57
2023-03-11T12:57:44.292Z,69.53
2023-03-11T13:00:42.033Z,69.14
2023-03-11T13:03:46.090Z,71.13
2023-03-11T13:06:31.498Z,73.78
2023-03-11T13:08:59.268Z,75.96
2023-03-11T13:11:31.797Z,78.42
2023-03-11T13:14:17.231Z,79.06
2023-03-11T13:16:45.535Z,78.33
2023-03-11T13:19:49.081Z,77.80
2023-03-11T13:22:53.955Z,77.07
2023-03-11T13:25:30.163Z,77.45
2023-03-11T13:28:20.157Z,76.69
2023-03-11T13:31:24.401Z,74.45
2023-03-11T13:33:56.534Z,74.31
2023-03-11T13:36:29.184Z,73.47
2023-03-11T13:39:14.326Z,73.20
2023-03-11T13:41:44.570Z,72.06
2023-03-11T13:44:19.890Z,74.17
2023-03-11T13:46:53.021Z,72.13
2023-03-11T13:49:28.416Z,71.39
2023-03-11T13:51:57.023Z,72.68
2023-03-11T13:54:52.860Z,73.13
2023-03-11T13:57:32.406Z,70.04
2023-03-11T14:00:24.342Z,69.28
2023-03-11T14:02:56.103Z,69.42
2023-03-11T14:05:33.544Z,68.65
2023-03-11T14:08:23.521Z,69.59
2023-03-11T14:10:54.845Z,68.50
2023-03-11T14:13:23.169Z,66.85
2023-03-11T14:15:58.698Z,67.00
2023-03-11T14:18:32.429Z,67.79
2023-03-11T14:20:59.608Z,68.37
2023-03-11T14:23:30.302Z,67.95
2023-03-11T14:26:02.482Z,68.79
2023-03-11T14:28:33.152Z,67.70
2023-03-11T14:31:02.168Z,67.46
2023-03-11T14:33:28.843Z,66.81
2023-03-11T14:35:59.691Z,65.16
2023-03-11T14:38:29.616Z,64.54
2023-03-11T14:41:01.412Z,66.21
2023-03-11T14:43:39.574Z,66.54
2023-03-11T14:46:07.842Z,67.84
2023-03-11T14:48:40.189Z,67.11
2023-03-11T14:51:14.877Z,68.22
2023-03-11T14:53:51.851Z,67.99
2023-03-11T14:56:23.998Z,67.45
2023-03-11T14:59:15.060Z,66.47
2023-03-11T15:01:43.724Z,67.42
2023-03-11T15:04:35.194Z,66.98
2023-03-11T15:07:04.447Z,66.96
2023-03-11T15:09:31.852Z,66.21
2023-03-11T15:12:00.860Z,65.79
2023-03-11T15:14:27.330Z,65.69
2023-03-11T15:16:55.693Z,65.73
2023-03-11T15:19:28.075Z,66.19
2023-03-11T15:21:58.641Z,65.39
2023-03-11T15:24:31.384Z,66.51
2023-03-11T15:27:02.289Z,65.64
2023-03-11T15:29:30.312Z,66.92
2023-03-11T15:31:57.373Z,64.61
2023-03-11T15:34:30.621Z,64.43
2023-03-11T15:37:20.546Z,64.03
2023-03-11T15:39:51.039Z,63.79
2023-03-11T15:42:20.665Z,63.83
2023-03-11T15:45:16.479Z,65.16
2023-03-11T15:47:44.269Z,65.11
2023-03-11T15:50:37.202Z,64.91
2023-03-11T15:53:09.739Z,65.23
2023-03-11T15:55:37.230Z,65.06
2023-03-11T15:58:08.063Z,65.37
2023-03-11T16:00:36.694Z,65.58
2023-03-11T16:03:03.801Z,66.74
2023-03-11T16:05:30.438Z,66.95
2023-03-11T16:07:57.070Z,67.20
2023-03-11T16:10:25.721Z,68.10
2023-03-11T16:12:52.336Z,67.14
2023-03-11T16:15:24.958Z,67.16
2023-03-11T16:17:52.877Z,67.76
2023-03-11T16:20:21.970Z,68.07
2023-03-11T16:22:50.277Z,67.28
2023-03-11T16:25:24.960Z,67.35
2023-03-11T16:27:53.213Z,66.94
2023-03-11T16:30:20.912Z,65.93
2023-03-11T16:32:47.477Z,65.97
2023-03-11T16:35:14.285Z,67.52
2023-03-11T16:37:42.796Z,67.44
2023-03-11T16:40:28.946Z,67.04
2023-03-11T16:43:00.194Z,67.98
2023-03-11T16:45:27.262Z,67.11
2023-03-11T16:47:53.879Z,67.65
2023-03-11T16:50:21.014Z,67.96
2023-03-11T16:52:47.876Z,68.22
2023-03-11T16:55:14.495Z,69.06
2023-03-11T16:57:41.051Z,69.61
2023-03-11T17:00:09.871Z,69.73
2023-03-11T17:02:37.405Z,69.23
2023-03-11T17:05:05.815Z,70.25
2023-03-11T17:07:33.001Z,69.55
2023-03-11T17:10:00.861Z,70.63
2023-03-11T17:12:27.925Z,70.54
2023-03-11T17:14:55.105Z,71.35
2023-03-11T17:17:23.495Z,72.53
2023-03-11T17:19:50.107Z,72.72
2023-03-11T17:22:17.145Z,72.49
2023-03-11T17:24:43.818Z,72.48
2023-03-11T17:27:10.404Z,73.09
2023-03-11T17:29:39.027Z,73.56
2023-03-11T17:32:06.623Z,73.37
2023-03-11T17:34:33.192Z,73.10
2023-03-11T17:36:59.795Z,75.72
2023-03-11T17:39:26.369Z,72.96
2023-03-11T17:41:52.892Z,71.89
2023-03-11T17:44:19.427Z,72.46
2023-03-11T17:46:46.041Z,72.69
2023-03-11T17:49:14.787Z,72.95
2023-03-11T17:51:41.601Z,72.06
2023-03-11T17:54:09.586Z,71.86
2023-03-11T17:56:36.095Z,72.16
2023-03-11T17:59:02.611Z,71.59
2023-03-11T18:01:30.395Z,71.68
2023-03-11T18:03:57.147Z,72.12
2023-03-11T18:06:23.795Z,72.98
2023-03-11T18:08:51.481Z,72.46
2023-03-11T18:11:21.631Z,73.07
2023-03-11T18:13:48.655Z,72.89
2023-03-11T18:16:21.325Z,72.26
2023-03-11T18:18:48.736Z,73.01
2023-03-11T18:21:20.629Z,72.55
2023-03-11T18:23:47.702Z,72.50
2023-03-11T18:26:17.205Z,73.16
2023-03-11T18:28:44.102Z,72.94
2023-03-11T18:31:19.555Z,73.29
2023-03-11T18:33:57.155Z,73.49
2023-03-11T18:36:29.668Z,74.17
2023-03-11T18:38:58.092Z,74.14
2023-03-11T18:41:26.294Z,73.68
2023-03-11T18:43:54.504Z,74.45
2023-03-11T18:46:21.245Z,74.84
2023-03-11T18:48:47.817Z,75.17
2023-03-11T18:51:15.424Z,76.39
2023-03-11T18:53:42.987Z,76.01
2023-03-11T18:56:13.622Z,75.06
2023-03-11T18:58:40.409Z,75.97
2023-03-11T19:01:10.682Z,75.03
2023-03-11T19:03:38.310Z,74.76
2023-03-11T19:06:07.630Z,75.32
2023-03-11T19:08:38.246Z,74.96
2023-03-11T19:11:13.701Z,75.09
2023-03-11T19:13:46.973Z,75.62
2023-03-11T19:16:21.936Z,75.23
2023-03-11T19:18:48.937Z,75.54
2023-03-11T19:21:16.546Z,77.36
2023-03-11T19:23:47.451Z,77.22
2023-03-11T19:26:14.107Z,77.61
2023-03-11T19:28:40.984Z,77.77
2023-03-11T19:31:07.761Z,78.23
2023-03-11T19:33:34.701Z,78.36
2023-03-11T19:36:03.936Z,77.04
2023-03-11T19:38:33.620Z,78.33
2023-03-11T19:41:01.555Z,77.77
2023-03-11T19:43:29.913Z,78.34
2023-03-11T19:45:56.734Z,78.29
2023-03-11T19:48:23.634Z,77.59
2023-03-11T19:50:51.469Z,78.59
2023-03-11T19:53:19.183Z,77.94
2023-03-11T19:55:51.570Z,77.58
2023-03-11T19:58:18.482Z,77.72
2023-03-11T20:00:45.901Z,77.71
2023-03-11T20:03:14.293Z,76.82
2023-03-11T20:05:43.559Z,77.06
2023-03-11T20:08:11.450Z,77.55
2023-03-11T20:10:40.278Z,77.58
2023-03-11T20:13:07.780Z,77.17
2023-03-11T20:15:35.090Z,77.94
2023-03-11T20:18:04.935Z,77.56
2023-03-11T20:20:32.554Z,77.27
2023-03-11T20:22:59.499Z,77.65
2023-03-11T20:25:26.645Z,77.47
2023-03-11T20:27:53.715Z,78.27
2023-03-11T20:30:21.129Z,78.14
2023-03-11T20:32:48.781Z,78.35
2023-03-11T20:35:15.639Z,77.26
2023-03-11T20:37:43.269Z,78.15
2023-03-11T20:40:13.127Z,77.00
2023-03-11T20:42:42.409Z,77.28
2023-03-11T20:45:10.471Z,76.99
2023-03-11T20:47:39.764Z,77.96
2023-03-11T20:50:06.887Z,78.12
2023-03-11T20:52:35.804Z,77.38
2023-03-11T20:55:04.817Z,76.07
2023-03-11T20:57:32.819Z,77.11
2023-03-11T21:00:02.181Z,77.20
2023-03-11T21:02:30.918Z,77.57
2023-03-11T21:04:57.567Z,78.13
2023-03-11T21:07:24.354Z,78.77
2023-03-11T21:09:54.564Z,77.34
2023-03-11T21:12:22.084Z,77.32
2023-03-11T21:14:48.756Z,77.93
2023-03-11T21:17:15.671Z,77.58
2023-03-11T21:19:42.368Z,78.22
2023-03-11T21:22:11.760Z,78.30
2023-03-11T21:24:38.716Z,77.96
2023-03-11T21:27:05.306Z,77.32
2023-03-11T21:29:31.932Z,77.82
2023-03-11T21:32:01.190Z,77.80
2023-03-11T21:34:27.989Z,76.58
2023-03-11T21:36:54.686Z,77.59
2023-03-11T21:39:22.056Z,77.52
2023-03-11T21:41:48.807Z,77.47
2023-03-11T21:44:15.537Z,77.34
2023-03-11T21:46:42.307Z,77.81
2023-03-11T21:49:09.132Z,78.86
2023-03-11T21:51:35.856Z,78.06
2023-03-11T21:54:03.608Z,76.62
2023-03-11T21:56:30.409Z,77.31
2023-03-11T21:58:57.280Z,77.45
2023-03-11T22:01:23.920Z,77.05
2023-03-11T22:03:50.621Z,78.09
2023-03-11T22:06:17.414Z,78.29
2023-03-11T22:08:44.292Z,76.97
2023-03-11T22:11:18.395Z,77.45
2023-03-11T22:13:46.941Z,77.62
2023-03-11T22:16:14.141Z,77.81
2023-03-11T22:18:41.044Z,77.70
2023-03-11T22:21:10.005Z,76.66
2023-03-11T22:23:37.354Z,77.66
2023-03-11T22:26:04.029Z,77.83
2023-03-11T22:28:30.690Z,77.65
2023-03-11T22:30:57.423Z,77.41
2023-03-11T22:33:24.256Z,77.71
2023-03-11T22:35:53.716Z,78.48
2023-03-11T22:38:20.669Z,77.41
2023-03-11T22:40:47.475Z,78.24
2023-03-11T22:43:14.158Z,79.23
2023-03-11T22:45:40.843Z,80.36
2023-03-11T22:48:07.605Z,79.27
2023-03-11T22:50:34.945Z,80.53
2023-03-11T22:53:02.035Z,79.51
2023-03-11T22:55:28.586Z,79.84
2023-03-11T22:57:55.182Z,80.42
2023-03-11T23:00:22.606Z,80.99
2023-03-11T23:02:53.559Z,82.41
2023-03-11T23:05:20.689Z,81.26
2023-03-11T23:07:48.299Z,81.38
2023-03-11T23:10:19.082Z,80.31
2023-03-11T23:12:47.445Z,82.31
2023-03-11T23:15:17.071Z,83.16
2023-03-11T23:17:57.424Z,83.31
2023-03-11T23:20:24.095Z,81.23
2023-03-11T23:22:50.640Z,82.75
2023-03-11T23:25:17.281Z,80.79
2023-03-11T23:27:45.235Z,80.44
2023-03-11T23:30:14.449Z,79.45
2023-03-11T23:32:41.053Z,78.73
2023-03-11T23:35:08.002Z,77.40
2023-03-11T23:37:34.728Z,77.11
2023-03-11T23:40:01.308Z,76.91
2023-03-11T23:42:27.905Z,77.53
2023-03-11T23:44:54.472Z,76.50
2023-03-11T23:47:21.309Z,76.51
2023-03-11T23:49:47.848Z,75.48
2023-03-11T23:52:16.692Z,77.31
2023-03-11T23:54:45.593Z,76.33
2023-03-11T23:57:12.160Z,76.26
2023-03-11T23:59:38.676Z,75.46
